Time;durP1;ratioP1;P1;durP2;ratioP2;P2;SDS_P1;SDS_P2;PMS_P1;PMS_P2;Temp;Humidity;BMP_temperature;BMP_pressure;BME280_temperature;BME280_humidity;BME280_pressure;Samples;Min_cycle;Max_cycle;Signal;HPM_P1;HPM_P2
2023/01/14 00:01:28;;;;;;;7.53;1.38;;;7.40;99.90;;;;;;4863289;29;20093;-85
2023/01/14 00:03:55;;;;;;;;;;;7.40;99.90;;;;;;4863820;29;20051;-88
2023/01/14 00:06:29;;;;;;;6.22;0.90;;;7.40;99.90;;;;;;4863699;29;19928;-86
2023/01/14 00:09:03;;;;;;;7.97;1.05;;;7.40;99.90;;;;;;4863069;29;20077;-85
2023/01/14 00:11:45;;;;;;;8.50;1.25;;;7.40;99.90;;;;;;4859760;29;20050;-85
2023/01/14 00:14:30;;;;;;;8.43;1.00;;;7.40;99.90;;;;;;4859781;29;20053;-85
2023/01/14 00:16:59;;;;;;;9.80;2.03;;;7.40;99.90;;;;;;4856511;29;20525;-85
2023/01/14 00:19:26;;;;;;;6.00;1.33;;;7.30;99.90;;;;;;4866114;29;20056;-85
2023/01/14 00:21:57;;;;;;;6.82;0.93;;;7.30;99.90;;;;;;4863505;29;20434;-85
2023/01/14 00:24:24;;;;;;;8.75;1.83;;;7.20;99.90;;;;;;4855735;29;20611;-85
2023/01/14 00:26:54;;;;;;;10.02;1.70;;;7.20;99.90;;;;;;4863524;29;20080;-85
2023/01/14 00:29:24;;;;;;;7.90;1.10;;;7.20;99.90;;;;;;4866670;29;20049;-85
2023/01/14 00:31:54;;;;;;;8.68;1.23;;;7.10;99.90;;;;;;4881611;29;20060;-84
2023/01/14 00:34:24;;;;;;;11.45;1.88;;;7.00;99.90;;;;;;4866011;29;20060;-85
2023/01/14 00:36:51;;;;;;;9.50;1.63;;;7.00;99.90;;;;;;4866033;29;20411;-85
2023/01/14 00:39:20;;;;;;;8.20;1.27;;;6.90;99.90;;;;;;4865923;29;20093;-85
2023/01/14 00:41:47;;;;;;;7.78;1.23;;;6.90;99.90;;;;;;4881170;29;20045;-85
2023/01/14 00:44:16;;;;;;;6.53;1.15;;;6.90;99.90;;;;;;4866126;29;20105;-85
2023/01/14 00:46:43;;;;;;;10.43;1.95;;;6.90;99.90;;;;;;4873579;29;20105;-85
2023/01/14 00:49:16;;;;;;;7.65;1.08;;;6.90;99.90;;;;;;4862793;29;20053;-85
2023/01/14 00:51:46;;;;;;;10.23;1.00;;;6.90;99.90;;;;;;4847801;29;20057;-85
2023/01/14 00:54:14;;;;;;;7.45;1.67;;;6.90;99.90;;;;;;4867159;29;20056;-85
2023/01/14 00:56:41;;;;;;;6.35;1.27;;;6.90;99.90;;;;;;4862718;29;20061;-86
2023/01/14 00:59:20;;;;;;;10.77;1.23;;;7.00;99.90;;;;;;4863929;29;20056;-85
2023/01/14 01:01:54;;;;;;;5.68;1.10;;;7.00;99.90;;;;;;4847549;29;20077;-85
2023/01/14 01:04:23;;;;;;;5.68;1.00;;;7.00;99.90;;;;;;4865381;29;20049;-85
2023/01/14 01:06:51;;;;;;;4.88;1.00;;;7.00;99.90;;;;;;4857202;29;20044;-85
2023/01/14 01:09:21;;;;;;;10.73;1.80;;;7.00;99.90;;;;;;4866067;29;20519;-86
2023/01/14 01:11:53;;;;;;;8.68;1.25;;;7.10;99.90;;;;;;4865891;29;20128;-85
2023/01/14 01:14:25;;;;;;;8.70;1.30;;;7.10;99.90;;;;;;4850647;29;20108;-85
2023/01/14 01:16:57;;;;;;;15.00;1.20;;;7.10;99.90;;;;;;4865536;29;20131;-85
2023/01/14 01:19:24;;;;;;;9.65;1.58;;;7.10;99.90;;;;;;4865201;29;20508;-84
2023/01/14 01:21:51;;;;;;;10.57;1.55;;;7.10;99.90;;;;;;4849910;29;20504;-84
2023/01/14 01:24:19;;;;;;;9.77;1.00;;;7.00;99.90;;;;;;4865217;29;20149;-85
2023/01/14 01:26:52;;;;;;;8.23;1.27;;;7.00;99.90;;;;;;4851447;29;20053;-85
2023/01/14 01:29:20;;;;;;;6.15;1.27;;;7.00;99.90;;;;;;4865434;29;20140;-86
2023/01/14 01:31:47;;;;;;;6.13;1.00;;;6.90;99.90;;;;;;4847093;29;20588;-86
2023/01/14 01:34:17;;;;;;;3.80;1.15;;;7.00;99.90;;;;;;4861742;29;20073;-86
2023/01/14 01:36:45;;;;;;;5.90;0.93;;;7.00;99.90;;;;;;4856142;29;20056;-86
2023/01/14 01:39:13;;;;;;;5.72;1.10;;;6.90;99.90;;;;;;4865117;29;20049;-86
2023/01/14 01:41:42;;;;;;;9.63;1.80;;;6.90;99.90;;;;;;4865636;29;20065;-86
2023/01/14 01:44:12;;;;;;;4.68;0.80;;;6.80;99.90;;;;;;4865407;29;20056;-87
2023/01/14 01:46:40;;;;;;;8.68;1.10;;;6.80;99.90;;;;;;4880253;29;20076;-87
2023/01/14 01:49:17;;;;;;;8.50;0.93;;;6.80;99.90;;;;;;4865154;29;20056;-87
2023/01/14 01:52:02;;;;;;;7.20;1.52;;;6.70;99.90;;;;;;4877115;29;20457;-86
2023/01/14 01:54:35;;;;;;;10.27;1.30;;;6.70;99.90;;;;;;4877275;29;20053;-86
2023/01/14 01:57:05;;;;;;;5.70;1.00;;;6.70;99.90;;;;;;4874733;29;20056;-87
2023/01/14 01:59:41;;;;;;;7.35;1.08;;;6.70;99.90;;;;;;4864788;29;20052;-85
2023/01/14 02:02:08;;;;;;;9.20;1.08;;;6.60;99.90;;;;;;4880295;29;20579;-85
2023/01/14 02:04:36;;;;;;;7.13;1.10;;;6.60;99.90;;;;;;4867379;29;20052;-85
2023/01/14 02:07:18;;;;;;;5.53;0.75;;;6.60;99.90;;;;;;4864480;29;20049;-86
2023/01/14 02:09:46;;;;;;;5.28;0.98;;;6.60;99.90;;;;;;4864564;29;20053;-86
2023/01/14 02:12:29;;;;;;;5.05;0.70;;;6.50;99.90;;;;;;4864414;29;20072;-85
2023/01/14 02:15:27;;;;;;;3.95;0.60;;;6.50;99.90;;;;;;4861262;29;20050;-85
2023/01/14 02:18:33;;;;;;;5.70;1.58;;;6.40;99.90;;;;;;4864439;29;20040;-85
2023/01/14 02:21:17;;;;;;;3.67;0.88;;;6.40;99.90;;;;;;4862298;29;20052;-86
2023/01/14 02:24:17;;;;;;;3.83;0.80;;;6.40;99.90;;;;;;4879972;29;20060;-85
2023/01/14 02:27:42;;;;;;;3.63;0.60;;;6.40;99.90;;;;;;4863519;29;20157;-85
2023/01/14 02:30:24;;;;;;;6.28;0.82;;;6.40;99.90;;;;;;4826473;29;20049;-85
2023/01/14 02:33:00;;;;;;;3.83;0.98;;;6.40;99.90;;;;;;4826577;29;20448;-85
2023/01/14 02:35:42;;;;;;;6.97;1.63;;;6.40;99.90;;;;;;4852541;29;20512;-85
2023/01/14 02:38:37;;;;;;;5.85;1.20;;;6.30;99.90;;;;;;4860771;29;20072;-85
2023/01/14 02:44:07;;;;;;;5.45;1.13;;;6.30;99.90;;;;;;4864088;29;20048;-85
2023/01/14 02:44:13;;;;;;;7.65;0.90;;;6.30;99.90;;;;;;4879145;29;20049;-84
2023/01/14 02:47:14;;;;;;;6.53;1.13;;;6.20;99.90;;;;;;4861097;29;20042;-84
2023/01/14 02:49:45;;;;;;;5.35;1.00;;;6.20;99.90;;;;;;4863774;29;20049;-85
2023/01/14 02:52:15;;;;;;;8.38;1.40;;;6.10;99.90;;;;;;4860879;29;20144;-85
2023/01/14 02:55:00;;;;;;;5.65;1.17;;;6.10;99.90;;;;;;4864027;29;20060;-84
2023/01/14 02:58:08;;;;;;;4.90;1.00;;;6.10;99.90;;;;;;4864757;29;20105;-85
2023/01/14 03:00:57;;;;;;;5.07;0.80;;;6.00;99.90;;;;;;4878842;29;20139;-85
2023/01/14 03:03:52;;;;;;;6.68;0.90;;;6.00;99.90;;;;;;4864172;29;20041;-84
2023/01/14 03:06:51;;;;;;;6.57;1.33;;;6.00;99.90;;;;;;4866329;29;20052;-84
2023/01/14 03:09:46;;;;;;;5.25;1.00;;;6.00;99.90;;;;;;4863790;29;20068;-85
2023/01/14 03:12:20;;;;;;;11.68;2.05;;;5.90;99.90;;;;;;4872572;29;20548;-85
2023/01/14 03:15:07;;;;;;;7.50;0.80;;;5.90;99.90;;;;;;4863480;29;20055;-85
2023/01/14 03:17:41;;;;;;;5.22;1.08;;;5.90;99.90;;;;;;4862080;29;20069;-85
2023/01/14 03:20:30;;;;;;;4.22;1.10;;;5.90;99.90;;;;;;4863758;29;20052;-84
2023/01/14 03:23:06;;;;;;;7.75;1.83;;;5.90;99.90;;;;;;4876497;29;20056;-83
2023/01/14 03:25:38;;;;;;;9.15;1.52;;;5.90;99.90;;;;;;4863455;29;20148;-85
2023/01/14 03:28:18;;;;;;;7.45;1.95;;;5.90;99.90;;;;;;4864597;29;20060;-85
2023/01/14 03:30:51;;;;;;;4.15;0.70;;;5.80;99.90;;;;;;4849390;29;20055;-84
2023/01/14 03:33:31;;;;;;;4.93;0.90;;;5.80;99.90;;;;;;4861297;29;20464;-85
2023/01/14 03:35:59;;;;;;;7.03;0.60;;;5.80;99.90;;;;;;4863172;29;20105;-84
2023/01/14 03:38:41;;;;;;;5.03;0.90;;;5.80;99.90;;;;;;4863104;29;20049;-85
2023/01/14 03:42:17;;;;;;;7.78;1.27;;;5.80;99.90;;;;;;4878899;29;20132;-84
2023/01/14 03:44:02;;;;;;;3.75;0.80;;;5.80;99.90;;;;;;4873174;29;20045;-85
2023/01/14 03:46:30;;;;;;;7.95;0.90;;;5.80;99.90;;;;;;4863175;29;20049;-85
2023/01/14 03:48:57;;;;;;;5.80;1.02;;;5.80;99.90;;;;;;4879530;29;20077;-85
2023/01/14 03:51:33;;;;;;;5.65;1.15;;;5.80;99.90;;;;;;4867037;29;20049;-85
2023/01/14 03:54:21;;;;;;;4.25;0.95;;;5.80;99.90;;;;;;4866872;29;20049;-85
2023/01/14 03:57:19;;;;;;;3.53;0.70;;;5.80;99.90;;;;;;4882292;29;20053;-85
2023/01/14 03:59:59;;;;;;;6.95;1.25;;;5.80;99.90;;;;;;4848288;29;20125;-84
2023/01/14 04:02:29;;;;;;;5.97;1.38;;;5.80;99.90;;;;;;4865663;29;20046;-84
2023/01/14 04:04:57;;;;;;;6.68;0.80;;;5.80;99.90;;;;;;4851524;29;20834;-89
2023/01/14 04:07:25;;;;;;;7.63;0.93;;;5.80;99.90;;;;;;4867266;29;20053;-89
2023/01/14 04:09:54;;;;;;;7.18;1.05;;;5.80;99.90;;;;;;4863467;29;20045;-84
2023/01/14 04:12:21;;;;;;;6.20;1.05;;;5.70;99.90;;;;;;4848026;29;20049;-85
2023/01/14 04:17:37;;;;;;;6.32;1.05;;;5.70;99.90;;;;;;4863622;29;20057;-84
2023/01/14 04:20:08;;;;;;;5.95;0.82;;;5.80;99.90;;;;;;4855169;29;20063;-85
2023/01/14 04:22:35;;;;;;;8.32;1.50;;;5.80;99.90;;;;;;4866101;29;20139;-84
2023/01/14 04:25:02;;;;;;;5.88;0.63;;;5.80;99.90;;;;;;4866243;29;20049;-85
2023/01/14 04:27:29;;;;;;;4.80;0.60;;;5.80;99.90;;;;;;4863486;29;20138;-84
2023/01/14 04:29:57;;;;;;;4.32;0.50;;;5.80;99.90;;;;;;4865944;29;20059;-85
2023/01/14 04:32:24;;;;;;;5.93;0.98;;;5.90;99.90;;;;;;4881284;29;20053;-85
2023/01/14 04:34:51;;;;;;;4.25;0.93;;;5.90;99.90;;;;;;4832150;29;20061;-84
2023/01/14 04:37:21;;;;;;;5.68;0.70;;;5.90;99.90;;;;;;4879716;29;20082;-85
2023/01/14 04:39:57;;;;;;;6.07;0.68;;;5.90;99.90;;;;;;4860658;29;20049;-84
2023/01/14 04:42:27;;;;;;;5.28;0.60;;;6.00;99.90;;;;;;4865747;29;20092;-84
2023/01/14 04:44:55;;;;;;;7.05;0.93;;;6.00;99.90;;;;;;4865771;29;20076;-84
2023/01/14 04:47:26;;;;;;;8.75;1.00;;;6.10;99.90;;;;;;4879732;29;20098;-84
2023/01/14 04:49:53;;;;;;;8.23;0.90;;;6.10;99.90;;;;;;4865620;29;20057;-85
2023/01/14 04:52:26;;;;;;;14.25;1.38;;;6.20;99.90;;;;;;4880792;29;20167;-84
2023/01/14 04:54:53;;;;;;;6.15;0.80;;;6.20;99.90;;;;;;4865844;29;20056;-85
2023/01/14 04:57:23;;;;;;;8.18;1.05;;;6.20;99.90;;;;;;4866000;29;20423;-84
2023/01/14 04:59:51;;;;;;;7.68;1.55;;;6.20;99.90;;;;;;4865604;29;20127;-84
2023/01/14 05:02:20;;;;;;;7.53;1.42;;;6.20;99.90;;;;;;4865396;29;20049;-84
2023/01/14 05:04:49;;;;;;;8.75;1.50;;;6.20;99.90;;;;;;4866349;29;20045;-84
2023/01/14 05:07:16;;;;;;;9.57;1.58;;;6.20;99.90;;;;;;4865549;29;20049;-85
2023/01/14 05:09:43;;;;;;;6.25;1.70;;;6.20;99.90;;;;;;4853047;29;20057;-84
2023/01/14 05:12:10;;;;;;;9.57;0.90;;;6.20;99.90;;;;;;4862532;29;20114;-85
2023/01/14 05:14:38;;;;;;;9.63;1.85;;;6.20;99.90;;;;;;4868899;29;20057;-84
2023/01/14 05:17:05;;;;;;;10.10;1.35;;;6.20;99.90;;;;;;4865454;29;20049;-84
2023/01/14 05:19:32;;;;;;;7.00;1.08;;;6.20;99.90;;;;;;4862340;29;20484;-85
2023/01/14 05:22:00;;;;;;;7.50;1.00;;;6.20;99.90;;;;;;4862165;29;20117;-84
2023/01/14 05:24:27;;;;;;;5.93;0.80;;;6.20;99.90;;;;;;4846774;29;20061;-84
2023/01/14 05:26:55;;;;;;;5.50;1.10;;;6.20;99.90;;;;;;4863320;29;20064;-84
2023/01/14 05:29:25;;;;;;;5.60;0.88;;;6.20;99.90;;;;;;4864945;29;20044;-84
2023/01/14 05:31:55;;;;;;;9.38;0.80;;;6.20;99.90;;;;;;4864932;29;20052;-84
2023/01/14 05:34:25;;;;;;;5.50;0.57;;;6.20;99.90;;;;;;4864801;29;20067;-84
2023/01/14 05:36:54;;;;;;;4.93;0.90;;;6.20;99.90;;;;;;4862140;29;20067;-90
2023/01/14 05:39:22;;;;;;;7.18;1.05;;;6.20;99.90;;;;;;4847317;29;20046;-90
2023/01/14 05:47:26;;;;;;;7.15;1.02;;;6.30;99.90;;;;;;4891494;29;20046;-90
2023/01/14 05:49:53;;;;;;;9.68;1.83;;;6.20;99.90;;;;;;4877611;29;20456;-89
2023/01/14 05:52:21;;;;;;;10.75;1.63;;;6.30;99.90;;;;;;4863246;29;20144;-89
2023/01/14 05:54:50;;;;;;;6.57;1.50;;;6.30;99.90;;;;;;4850307;29;20148;-89
2023/01/14 05:57:18;;;;;;;10.35;1.05;;;6.30;99.90;;;;;;4864812;29;20055;-89
2023/01/14 05:59:45;;;;;;;15.82;2.30;;;6.30;99.90;;;;;;4864597;29;20457;-89
2023/01/14 06:07:43;;;;;;;9.40;1.90;;;6.30;99.90;;;;;;4880122;29;20642;-88
2023/01/14 06:10:11;;;;;;;10.43;1.73;;;6.20;99.90;;;;;;4880572;29;20049;-89
2023/01/14 06:15:25;;;;;;;11.98;1.85;;;6.30;99.90;;;;;;4879955;29;20081;-89
2023/01/14 06:17:58;;;;;;;10.63;1.65;;;6.30;99.90;;;;;;4864728;29;20500;-90
2023/01/14 06:20:28;;;;;;;12.95;1.50;;;6.30;99.90;;;;;;4864716;29;20052;-89
2023/01/14 06:22:55;;;;;;;9.73;0.90;;;6.30;99.90;;;;;;4864648;29;20052;-89
2023/01/14 06:25:25;;;;;;;7.05;0.90;;;6.30;99.90;;;;;;4864333;29;20389;-89
2023/01/14 06:27:56;;;;;;;9.27;0.90;;;6.30;99.90;;;;;;4864309;29;20144;-89
2023/01/14 06:30:24;;;;;;;9.10;1.15;;;6.40;99.90;;;;;;4864663;29;20056;-89
2023/01/14 06:32:51;;;;;;;6.95;1.10;;;6.30;99.90;;;;;;4861676;29;20081;-89
2023/01/14 06:35:20;;;;;;;4.35;0.50;;;6.40;99.90;;;;;;4849043;29;20462;-90
2023/01/14 06:37:47;;;;;;;10.50;0.70;;;6.40;99.90;;;;;;4864486;29;20059;-90
2023/01/14 06:40:15;;;;;;;6.30;0.73;;;6.40;99.90;;;;;;4864103;29;20133;-89
2023/01/14 06:42:43;;;;;;;8.05;0.98;;;6.50;99.90;;;;;;4864418;29;20056;-90
2023/01/14 06:45:12;;;;;;;5.60;1.00;;;6.50;99.90;;;;;;4863976;29;20045;-89
2023/01/14 06:47:39;;;;;;;4.03;0.50;;;6.50;99.90;;;;;;4864052;29;20051;-90
2023/01/14 06:50:07;;;;;;;9.98;1.23;;;6.50;99.90;;;;;;4864422;29;20156;-89
2023/01/14 06:52:34;;;;;;;6.80;0.77;;;6.50;99.90;;;;;;4879612;29;20068;-89
2023/01/14 06:55:01;;;;;;;5.03;0.80;;;6.60;99.90;;;;;;4864122;29;20056;-89
2023/01/14 06:57:29;;;;;;;5.57;0.75;;;6.60;99.90;;;;;;4863826;29;20053;-89
2023/01/14 06:59:58;;;;;;;13.50;1.38;;;6.60;99.90;;;;;;4863771;29;20045;-89
2023/01/14 07:02:25;;;;;;;6.82;2.03;;;6.60;99.90;;;;;;4863656;29;20040;-89
2023/01/14 07:04:55;;;;;;;6.35;0.70;;;6.60;99.90;;;;;;4863123;29;20133;-89
2023/01/14 07:07:25;;;;;;;5.55;0.75;;;6.60;99.90;;;;;;4860488;29;20050;-89
2023/01/14 07:09:55;;;;;;;6.55;0.73;;;6.70;99.90;;;;;;4854027;29;20073;-83
2023/01/14 07:12:24;;;;;;;3.92;0.70;;;6.60;99.90;;;;;;4863175;29;20419;-83
2023/01/14 07:14:54;;;;;;;5.13;0.95;;;6.70;99.90;;;;;;4848303;29;20084;-84
2023/01/14 07:17:21;;;;;;;5.72;0.88;;;6.60;99.90;;;;;;4879075;29;20049;-84
2023/01/14 07:19:49;;;;;;;10.18;1.27;;;6.60;99.90;;;;;;4863927;29;20445;-85
2023/01/14 07:22:17;;;;;;;8.45;1.30;;;6.60;99.90;;;;;;4860126;29;20416;-86
2023/01/14 07:24:45;;;;;;;9.73;1.30;;;6.60;99.90;;;;;;4864419;29;20053;-85
2023/01/14 07:27:14;;;;;;;7.85;1.40;;;6.50;99.90;;;;;;4865945;29;20116;-85
2023/01/14 07:29:42;;;;;;;10.63;1.45;;;6.50;99.90;;;;;;4868969;29;20076;-86
2023/01/14 07:32:09;;;;;;;7.28;0.80;;;6.50;99.90;;;;;;4869578;29;20055;-85
2023/01/14 07:34:36;;;;;;;5.30;1.30;;;6.50;99.90;;;;;;4866080;29;20519;-85
2023/01/14 07:37:03;;;;;;;7.22;0.95;;;6.50;99.90;;;;;;4850961;29;20057;-84
2023/01/14 07:39:33;;;;;;;4.80;1.13;;;6.50;99.90;;;;;;4865325;29;20045;-85
2023/01/14 07:42:00;;;;;;;4.40;0.70;;;6.50;99.90;;;;;;4869390;29;20412;-85
2023/01/14 07:44:29;;;;;;;4.90;1.05;;;6.50;99.90;;;;;;4869730;29;20056;-84
2023/01/14 07:46:56;;;;;;;5.68;0.82;;;6.50;99.90;;;;;;4866240;29;20048;-83
2023/01/14 07:49:24;;;;;;;4.78;0.98;;;6.50;99.90;;;;;;4851014;29;20448;-84
2023/01/14 07:51:55;;;;;;;11.30;1.00;;;6.50;99.90;;;;;;4862904;29;20056;-85
2023/01/14 07:54:25;;;;;;;6.85;1.20;;;6.50;99.90;;;;;;4868976;29;20419;-84
2023/01/14 07:56:55;;;;;;;4.35;1.13;;;6.50;99.90;;;;;;4853567;29;20143;-82
2023/01/14 07:59:24;;;;;;;5.20;0.90;;;6.60;99.90;;;;;;4850545;29;20073;-82
2023/01/14 08:01:53;;;;;;;9.00;1.00;;;6.60;99.90;;;;;;4862359;29;20053;-85
2023/01/14 08:04:21;;;;;;;4.78;1.20;;;6.60;99.90;;;;;;4853653;29;20141;-83
2023/01/14 08:06:50;;;;;;;7.15;1.23;;;6.60;99.90;;;;;;4839254;29;20116;-86
2023/01/14 08:09:17;;;;;;;6.10;1.20;;;6.60;99.90;;;;;;4868817;29;20559;-84
2023/01/14 08:11:44;;;;;;;3.60;0.75;;;6.60;99.90;;;;;;4865903;29;20045;-84
2023/01/14 08:14:11;;;;;;;7.53;0.95;;;6.60;99.90;;;;;;4864284;29;20483;-83
2023/01/14 08:16:38;;;;;;;4.13;0.98;;;6.60;99.90;;;;;;4868883;29;20124;-85
2023/01/14 08:19:09;;;;;;;4.70;1.10;;;6.70;99.90;;;;;;4853680;29;20492;-85
2023/01/14 08:21:36;;;;;;;5.82;0.90;;;6.70;99.90;;;;;;4846897;29;20126;-86
2023/01/14 08:24:04;;;;;;;6.20;1.20;;;6.70;99.90;;;;;;4853345;29;20427;-85
2023/01/14 08:26:31;;;;;;;5.05;1.70;;;6.70;99.90;;;;;;4866075;29;20519;-83
2023/01/14 08:28:58;;;;;;;3.83;1.27;;;6.70;99.90;;;;;;4853569;29;20101;-84
2023/01/14 08:31:28;;;;;;;5.40;1.02;;;6.70;99.90;;;;;;4853942;29;20044;-86
2023/01/14 08:33:55;;;;;;;4.85;0.93;;;6.80;99.90;;;;;;4869247;29;20048;-87
2023/01/14 08:36:25;;;;;;;5.65;0.82;;;6.80;99.90;;;;;;4846948;29;20077;-84
2023/01/14 08:38:54;;;;;;;1.77;0.55;;;6.80;99.90;;;;;;4865010;29;20049;-89
2023/01/14 08:41:21;;;;;;;3.10;0.85;;;6.80;99.90;;;;;;4866474;29;20139;-88
2023/01/14 08:43:50;;;;;;;3.45;0.85;;;6.90;99.90;;;;;;4851157;29;20081;-87
2023/01/14 08:46:20;;;;;;;2.80;0.75;;;6.90;99.90;;;;;;4866939;29;20048;-89
2023/01/14 08:48:47;;;;;;;6.93;1.13;;;6.90;99.90;;;;;;4874908;29;20053;-88
2023/01/14 08:51:14;;;;;;;3.30;1.23;;;7.00;99.90;;;;;;4866291;29;20048;-88
2023/01/14 08:53:42;;;;;;;4.80;1.33;;;7.00;99.90;;;;;;4866187;29;20155;-87
2023/01/14 08:56:16;;;;;;;3.13;0.98;;;7.00;99.90;;;;;;4850818;29;20108;-89
2023/01/14 08:58:47;;;;;;;6.28;0.95;;;7.00;99.90;;;;;;4881644;29;20085;-89
2023/01/14 09:01:15;;;;;;;2.10;0.70;;;7.00;99.90;;;;;;4854653;29;20049;-88
2023/01/14 09:03:43;;;;;;;3.08;0.80;;;7.00;99.90;;;;;;4865714;29;20048;-88
2023/01/14 09:06:12;;;;;;;5.53;0.95;;;7.10;99.90;;;;;;4865879;29;20460;-87
2023/01/14 09:17:14;;;;;;;2.70;0.75;;;7.10;99.90;;;;;;4880630;29;20298;-86
2023/01/14 09:19:52;;;;;;;4.00;1.00;;;7.10;99.90;;;;;;4865906;29;20049;-86
2023/01/14 09:22:22;;;;;;;6.18;1.58;;;7.20;99.90;;;;;;4865270;29;20045;-87
2023/01/14 09:24:50;;;;;;;3.55;0.80;;;7.20;99.90;;;;;;4880758;29;20105;-86
2023/01/14 09:27:18;;;;;;;1.50;0.73;;;7.30;99.90;;;;;;4865420;29;20073;-84
2023/01/14 09:29:45;;;;;;;3.97;0.90;;;7.30;99.90;;;;;;4862317;29;20057;-85
2023/01/14 09:32:15;;;;;;;3.70;0.90;;;7.30;99.90;;;;;;4857607;29;20064;-87
2023/01/14 09:34:47;;;;;;;7.82;1.30;;;7.30;99.90;;;;;;4864539;29;20147;-86
2023/01/14 09:37:19;;;;;;;4.05;0.98;;;7.30;99.90;;;;;;4828506;29;20053;-86
2023/01/14 09:39:47;;;;;;;3.40;1.15;;;7.40;99.90;;;;;;4838808;29;20140;-87
2023/01/14 09:42:36;;;;;;;6.15;0.98;;;7.40;99.90;;;;;;4831370;29;20046;-87
2023/01/14 09:45:19;;;;;;;3.10;0.90;;;7.40;99.90;;;;;;4846390;29;20049;-86
2023/01/14 09:47:55;;;;;;;3.03;0.80;;;7.40;99.90;;;;;;4843663;29;20141;-88
2023/01/14 09:51:02;;;;;;;4.63;1.05;;;7.50;99.90;;;;;;4861568;29;20148;-87
2023/01/14 09:53:43;;;;;;;3.33;0.90;;;7.50;99.90;;;;;;4811963;29;20057;-87
2023/01/14 09:56:21;;;;;;;6.13;0.75;;;7.60;99.90;;;;;;4831676;29;20133;-88
2023/01/14 09:58:52;;;;;;;4.32;1.00;;;7.60;99.90;;;;;;4830876;29;20065;-89
2023/01/14 10:01:45;;;;;;;4.13;0.60;;;7.60;99.90;;;;;;4831326;29;20049;-87
2023/01/14 10:04:36;;;;;;;4.13;0.93;;;7.60;99.90;;;;;;4849062;29;20060;-86
2023/01/14 10:07:06;;;;;;;2.92;0.98;;;7.60;99.90;;;;;;4831201;29;20049;-86
2023/01/14 10:09:39;;;;;;;4.07;0.50;;;7.60;99.90;;;;;;4830965;29;20041;-88
2023/01/14 10:12:14;;;;;;;4.28;0.60;;;7.60;99.90;;;;;;4846543;29;20049;-88
2023/01/14 10:14:47;;;;;;;4.03;0.60;;;7.70;99.90;;;;;;4829898;29;20046;-88
2023/01/14 10:17:19;;;;;;;2.72;0.50;;;7.70;99.90;;;;;;4838750;29;20053;-89
2023/01/14 10:20:33;;;;;;;3.47;0.73;;;7.70;99.90;;;;;;4831485;29;20056;-91
2023/01/14 10:23:20;;;;;;;4.65;0.85;;;7.70;99.90;;;;;;4826036;29;20049;-89
2023/01/14 10:25:50;;;;;;;4.00;0.80;;;7.70;99.90;;;;;;4831021;29;20045;-88
2023/01/14 10:28:29;;;;;;;4.25;0.60;;;7.70;99.90;;;;;;4844977;29;20098;-88
2023/01/14 10:30:59;;;;;;;5.93;0.70;;;7.80;99.90;;;;;;4840715;29;20054;-88
2023/01/14 10:33:26;;;;;;;3.03;0.68;;;7.80;99.90;;;;;;4830708;29;20081;-89
2023/01/14 10:36:14;;;;;;;1.67;0.63;;;7.80;99.90;;;;;;4847470;29;20089;-88
2023/01/14 10:38:42;;;;;;;4.10;0.73;;;7.80;99.90;;;;;;4849455;29;20053;-90
2023/01/14 10:41:48;;;;;;;1.45;0.52;;;7.80;99.90;;;;;;4880229;29;20511;-95
2023/01/14 10:44:27;;;;;;;2.75;0.40;;;7.80;99.90;;;;;;4879008;29;20072;-90
2023/01/14 10:52:05;;;;;;;3.03;0.50;;;7.90;99.90;;;;;;4880875;29;20398;-91
2023/01/14 11:04:05;;;;;;;2.45;0.40;;;7.90;99.90;;;;;;4627274;30;19971;-92
2023/01/14 11:12:18;;;;;;;2.55;0.60;;;8.10;99.90;;;;;;4624658;31;20042;-91
2023/01/14 11:24:35;;;;;;;1.45;0.47;;;8.20;99.90;;;;;;4647510;30;20604;-89
2023/01/14 11:27:13;;;;;;;2.38;0.60;;;8.20;99.90;;;;;;4681952;30;20068;-88
2023/01/14 11:30:14;;;;;;;3.28;0.60;;;8.30;99.90;;;;;;4722113;29;20580;-91
2023/01/14 11:33:26;;;;;;;;;;;;;;;;;;;;;
2023/01/14 11:36:24;;;;;;;3.13;0.60;;;8.40;99.90;;;;;;4877243;29;20552;-89
2023/01/14 11:39:23;;;;;;;3.75;0.63;;;8.40;99.90;;;;;;4878763;29;20045;-91
2023/01/14 11:42:44;;;;;;;3.47;0.60;;;8.50;99.90;;;;;;4868656;29;20049;-91
2023/01/14 11:45:39;;;;;;;3.67;0.63;;;8.50;99.90;;;;;;4879083;29;20053;-89
2023/01/14 11:49:27;;;;;;;3.53;0.65;;;8.50;99.90;;;;;;4858598;29;20056;-90
2023/01/14 11:55:51;;;;;;;3.22;0.70;;;8.60;99.90;;;;;;4876126;29;20053;-90
2023/01/14 11:58:32;;;;;;;4.03;0.70;;;8.60;99.90;;;;;;4863752;29;20084;-89
2023/01/14 12:01:26;;;;;;;1.35;0.47;;;8.60;99.90;;;;;;4878517;29;20807;-90
2023/01/14 12:04:26;;;;;;;;;;;;;;;;;;;;;
2023/01/14 12:07:35;;;;;;;3.25;0.50;;;8.70;99.90;;;;;;4855398;29;20041;-90
2023/01/14 12:11:09;;;;;;;;;;;;;;;;;;;;;
2023/01/14 12:17:24;;;;;;;1.90;0.50;;;8.80;99.90;;;;;;4882140;29;20049;-89
2023/01/14 12:20:18;;;;;;;3.88;0.60;;;8.90;99.90;;;;;;4863481;29;20057;-88
2023/01/14 12:23:49;;;;;;;;;;;;;;;;;;;;;
2023/01/14 12:26:42;;;;;;;3.20;0.43;;;8.90;99.90;;;;;;4865571;29;20046;-90
2023/01/14 12:29:24;;;;;;;;;;;9.00;99.90;;;;;;4852408;29;20049;-91
2023/01/14 12:32:02;;;;;;;1.17;0.50;;;9.00;99.90;;;;;;4859463;29;19923;-92
2023/01/14 12:46:25;;;;;;;2.25;0.50;;;9.00;99.90;;;;;;4734278;30;20053;-95
2023/01/14 14:22:26;;;;;;;1.15;0.60;;;9.50;99.90;;;;;;722986;23;20479;-89
2023/01/14 14:24:57;;;;;;;1.55;0.60;;;9.60;99.90;;;;;;4856898;29;20066;-90
2023/01/14 14:28:21;;;;;;;0.93;0.43;;;9.60;99.90;;;;;;4858260;29;20042;-95
2023/01/14 14:31:16;;;;;;;0.95;0.40;;;9.60;99.90;;;;;;4773176;30;20090;-88
2023/01/14 14:33:58;;;;;;;1.05;0.50;;;9.60;99.90;;;;;;4780408;29;20066;-90
2023/01/14 14:36:55;;;;;;;;;;;9.70;99.90;;;;;;4801405;29;20055;-88
2023/01/14 14:40:06;;;;;;;1.95;0.60;;;9.70;99.90;;;;;;4803196;29;19932;-89
2023/01/14 14:43:22;;;;;;;1.20;0.50;;;9.70;99.90;;;;;;4784636;30;20477;-92
2023/01/14 14:55:15;;;;;;;1.77;0.60;;;9.80;99.90;;;;;;4788030;29;20034;-91
2023/01/14 15:02:00;;;;;;;1.13;0.50;;;9.80;99.90;;;;;;4782333;29;20056;-93
2023/01/14 15:04:47;;;;;;;1.58;0.50;;;9.90;99.90;;;;;;4773953;30;20055;-93
2023/01/14 15:07:20;;;;;;;2.00;0.50;;;9.90;99.90;;;;;;4793224;29;20067;-90
2023/01/14 15:09:52;;;;;;;2.50;0.60;;;9.90;99.90;;;;;;4827301;29;20153;-91
2023/01/14 15:15:32;;;;;;;1.02;0.55;;;10.00;99.90;;;;;;4853601;29;20050;-92
2023/01/14 15:18:28;;;;;;;1.00;0.50;;;10.00;99.90;;;;;;4842228;29;20565;-90
2023/01/14 15:22:02;;;;;;;;;;;;;;;;;;;;;
2023/01/14 17:10:24;;;;;;;2.70;0.90;;;10.60;99.90;;;;;;1084186;23;20469;-96
2023/01/14 17:12:53;;;;;;;2.05;0.93;;;10.60;99.90;;;;;;4866904;29;20075;-94
2023/01/14 17:15:25;;;;;;;2.28;1.10;;;10.60;99.90;;;;;;4846220;29;20057;-92
2023/01/14 17:17:59;;;;;;;2.17;0.90;;;10.60;99.90;;;;;;4865656;29;20107;-93
2023/01/14 17:25:22;;;;;;;1.35;0.68;;;10.70;99.90;;;;;;4837905;29;20025;-94
2023/01/14 17:32:41;;;;;;;2.47;0.80;;;10.70;99.90;;;;;;4779836;29;20098;-92
2023/01/14 17:38:56;;;;;;;1.33;0.70;;;10.70;99.90;;;;;;4768011;29;20149;-89
2023/01/14 17:51:23;;;;;;;1.75;0.60;;;10.80;99.90;;;;;;4702375;30;20141;-93
2023/01/14 17:54:41;;;;;;;1.40;0.63;;;10.80;99.90;;;;;;4700897;30;20517;-94
2023/01/14 19:29:16;;;;;;;13.68;2.58;;;10.80;99.90;;;;;;1889999;23;21552;-89
2023/01/14 19:36:57;;;;;;;13.98;2.10;;;10.70;99.90;;;;;;4719082;30;20053;-93
2023/01/14 19:40:08;;;;;;;11.23;1.77;;;10.60;99.90;;;;;;4684645;30;20058;-93
2023/01/14 19:43:07;;;;;;;9.70;2.28;;;10.70;99.90;;;;;;4711073;30;20060;-88
2023/01/14 19:45:40;;;;;;;8.32;1.70;;;10.70;99.90;;;;;;4691558;30;20109;-92
2023/01/14 20:08:48;;;;;;;7.82;1.77;;;10.70;99.90;;;;;;4657222;30;20129;-94
2023/01/14 20:42:37;;;;;;;3.15;0.68;;;8.50;99.90;;;;;;6166363;23;20072;-93
2023/01/14 20:45:07;;;;;;;3.67;0.70;;;8.40;99.90;;;;;;6187227;22;20106;-90
2023/01/14 20:48:20;;;;;;;1.85;0.52;;;8.40;99.90;;;;;;6263993;22;20065;-89
2023/01/14 21:54:03;;;;;;;3.08;0.50;;;7.90;99.90;;;;;;6279893;22;20452;-86
2023/01/14 21:56:31;;;;;;;4.40;0.55;;;7.90;99.90;;;;;;6250306;22;20319;-83
2023/01/14 21:58:58;;;;;;;3.75;0.60;;;7.90;99.90;;;;;;6199814;22;20066;-81
2023/01/14 22:01:27;;;;;;;2.25;0.55;;;7.90;99.90;;;;;;6225462;22;20019;-83
2023/01/14 22:03:55;;;;;;;4.18;0.63;;;7.90;99.90;;;;;;6225041;22;20031;-83
2023/01/14 22:06:23;;;;;;;2.15;0.50;;;8.00;99.90;;;;;;6250421;22;20103;-85
2023/01/14 22:08:50;;;;;;;4.47;1.00;;;7.90;99.90;;;;;;6225437;22;20023;-82
2023/01/14 22:11:17;;;;;;;4.80;0.60;;;7.90;99.90;;;;;;6250103;22;20012;-83
2023/01/14 22:13:47;;;;;;;4.13;0.65;;;8.00;99.90;;;;;;6225101;22;20069;-86
2023/01/14 22:16:15;;;;;;;3.85;1.35;;;7.90;99.90;;;;;;6225612;22;20023;-85
2023/01/14 22:18:47;;;;;;;2.47;0.52;;;7.90;99.90;;;;;;6201427;22;20023;-86
2023/01/14 22:21:15;;;;;;;5.45;0.70;;;7.90;99.90;;;;;;6219775;22;20023;-84
2023/01/14 22:23:45;;;;;;;1.95;0.52;;;7.90;99.90;;;;;;6195204;22;20024;-88
2023/01/14 22:26:27;;;;;;;2.97;0.50;;;8.00;99.90;;;;;;6222532;22;20020;-85
2023/01/14 22:28:55;;;;;;;2.38;0.75;;;8.00;99.90;;;;;;6220314;22;20023;-86
2023/01/14 22:31:26;;;;;;;3.63;0.68;;;8.00;99.90;;;;;;6247086;22;20012;-86
2023/01/14 22:34:20;;;;;;;;;;;;;;;;;;;;;